createdAt,value
2023-01-31T00:01:07.151Z,25.90
2023-01-31T00:03:10.309Z,20.58
2023-01-31T00:05:15.091Z,12.75
2023-01-31T00:07:18.245Z,16.27
2023-01-31T00:09:21.786Z,19.30
2023-01-31T00:11:27.956Z,16.33
2023-01-31T00:13:31.363Z,21.42
2023-01-31T00:15:35.043Z,17.23
2023-01-31T00:17:38.845Z,20.33
2023-01-31T00:19:42.304Z,17.45
2023-01-31T00:21:47.380Z,18.17
2023-01-31T00:23:51.590Z,18.40
2023-01-31T00:25:54.788Z,17.02
2023-01-31T00:27:59.405Z,18.10
2023-01-31T00:30:02.684Z,18.10
2023-01-31T00:32:06.365Z,21.45
2023-01-31T00:34:09.744Z,23.90
2023-01-31T00:36:14.676Z,28.08
2023-01-31T00:38:19.182Z,17.10
2023-01-31T00:40:22.521Z,20.85
2023-01-31T00:42:25.731Z,25.02
2023-01-31T00:44:28.997Z,17.55
2023-01-31T00:46:34.844Z,23.23
2023-01-31T00:48:38.760Z,23.55
2023-01-31T00:50:42.155Z,19.77
2023-01-31T00:52:46.390Z,22.27
2023-01-31T00:54:50.985Z,25.00
2023-01-31T00:56:54.353Z,28.33
2023-01-31T00:58:57.653Z,18.90
2023-01-31T01:01:07.533Z,18.63
2023-01-31T01:03:10.868Z,19.90
2023-01-31T01:05:14.118Z,19.52
2023-01-31T01:07:17.237Z,16.85
2023-01-31T01:09:20.460Z,12.60
2023-01-31T01:11:28.077Z,14.77
2023-01-31T01:13:31.950Z,15.23
2023-01-31T01:15:39.234Z,17.38
2023-01-31T01:17:42.457Z,21.55
2023-01-31T01:19:45.746Z,14.73
2023-01-31T01:21:49.083Z,14.27
2023-01-31T01:23:53.193Z,15.27
2023-01-31T01:25:57.189Z,24.92
2023-01-31T01:28:01.836Z,24.65
2023-01-31T01:30:06.212Z,23.67
2023-01-31T01:32:09.465Z,27.25
2023-01-31T01:34:14.514Z,35.83
2023-01-31T01:36:21.813Z,28.20
2023-01-31T01:38:24.947Z,31.23
2023-01-31T01:40:36.324Z,28.98
2023-01-31T01:44:55.315Z,33.60
2023-01-31T01:47:00.691Z,29.45
2023-01-31T01:49:13.425Z,22.00
2023-01-31T01:51:19.410Z,26.45
2023-01-31T01:53:26.816Z,28.65
2023-01-31T01:55:36.196Z,32.63
2023-01-31T01:57:44.468Z,28.00
2023-01-31T01:59:53.863Z,31.38
2023-01-31T02:01:58.810Z,33.42
2023-01-31T02:04:08.745Z,23.95
2023-01-31T02:06:12.379Z,27.13
2023-01-31T02:08:21.952Z,31.52
2023-01-31T02:10:29.962Z,29.70
2023-01-31T02:12:35.156Z,29.65
2023-01-31T02:14:38.368Z,27.55
2023-01-31T02:16:41.546Z,32.33
2023-01-31T02:18:47.053Z,25.55
2023-01-31T02:21:26.385Z,27.90
2023-01-31T02:24:14.770Z,21.00
2023-01-31T02:27:01.907Z,28.60
2023-01-31T02:29:29.131Z,27.98
2023-01-31T02:32:01.487Z,21.77
2023-01-31T02:34:14.562Z,27.73
2023-01-31T02:36:29.314Z,24.33
2023-01-31T02:38:43.175Z,21.08
2023-01-31T02:40:53.467Z,24.30
2023-01-31T02:43:07.088Z,22.77
2023-01-31T02:45:21.618Z,22.95
2023-01-31T02:47:43.703Z,23.70
2023-01-31T02:49:55.846Z,23.77
2023-01-31T02:52:13.540Z,26.40
2023-01-31T02:54:22.650Z,17.92
2023-01-31T02:56:28.592Z,25.35
2023-01-31T02:58:36.960Z,18.17
2023-01-31T03:00:45.476Z,19.75
2023-01-31T03:02:49.051Z,17.10
2023-01-31T03:04:53.670Z,21.25
2023-01-31T03:07:02.411Z,15.73
2023-01-31T03:09:13.746Z,18.65
2023-01-31T03:11:17.059Z,20.67
2023-01-31T03:13:32.988Z,12.50
2023-01-31T03:16:04.593Z,13.68
2023-01-31T03:18:13.761Z,22.88
2023-01-31T03:20:23.927Z,18.77
2023-01-31T03:22:31.086Z,19.92
2023-01-31T03:24:36.321Z,18.92
2023-01-31T03:26:40.425Z,24.40
2023-01-31T03:28:44.806Z,19.60
2023-01-31T03:30:52.553Z,22.55
2023-01-31T03:33:01.900Z,20.30
2023-01-31T03:35:06.133Z,23.48
2023-01-31T03:37:17.930Z,18.95
2023-01-31T03:39:30.454Z,21.20
2023-01-31T03:41:44.257Z,22.50
2023-01-31T03:43:59.947Z,23.38
2023-01-31T03:46:08.728Z,25.83
2023-01-31T03:48:17.809Z,23.30
2023-01-31T03:50:29.279Z,24.70
2023-01-31T03:52:38.470Z,20.92
2023-01-31T03:54:48.113Z,23.35
2023-01-31T03:56:57.976Z,20.17
2023-01-31T03:59:07.821Z,30.13
2023-01-31T04:01:14.213Z,30.30
2023-01-31T04:03:21.546Z,19.08
2023-01-31T04:05:30.620Z,20.85
2023-01-31T04:07:35.891Z,26.15
2023-01-31T04:09:39.803Z,24.73
2023-01-31T04:11:44.143Z,31.50
2023-01-31T04:13:47.307Z,33.55
2023-01-31T04:15:50.525Z,23.70
2023-01-31T04:17:53.710Z,34.78
2023-01-31T04:19:56.945Z,33.80
2023-01-31T04:22:00.101Z,29.55
2023-01-31T04:24:04.983Z,20.10
2023-01-31T04:26:08.131Z,21.92
2023-01-31T04:28:11.399Z,24.73
2023-01-31T04:30:15.088Z,30.77
2023-01-31T04:32:18.259Z,27.40
2023-01-31T04:34:21.714Z,33.10
2023-01-31T04:36:24.893Z,25.63
2023-01-31T04:38:28.100Z,23.00
2023-01-31T04:40:33.041Z,31.52
2023-01-31T04:42:36.521Z,22.67
2023-01-31T04:44:39.614Z,27.83
2023-01-31T04:46:42.902Z,31.13
2023-01-31T04:48:46.167Z,33.42
2023-01-31T04:50:49.297Z,28.08
2023-01-31T04:52:53.024Z,34.17
2023-01-31T04:54:56.329Z,35.88
2023-01-31T04:57:00.817Z,30.05
2023-01-31T04:59:04.169Z,26.13
2023-01-31T05:01:07.502Z,26.77
2023-01-31T05:03:10.741Z,25.23
2023-01-31T05:05:13.921Z,34.13
2023-01-31T05:07:17.121Z,28.52
2023-01-31T05:09:20.987Z,23.50
2023-01-31T05:11:24.145Z,32.47
2023-01-31T05:13:30.157Z,27.20
2023-01-31T05:15:33.427Z,28.92
2023-01-31T05:17:36.527Z,22.00
2023-01-31T05:19:39.705Z,25.52
2023-01-31T05:21:58.257Z,29.15
2023-01-31T05:24:01.461Z,26.42
2023-01-31T05:26:05.076Z,23.92
2023-01-31T05:28:08.884Z,38.00
2023-01-31T05:30:14.535Z,25.40
2023-01-31T05:32:19.463Z,27.33
2023-01-31T05:34:25.346Z,23.40
2023-01-31T05:36:28.462Z,27.88
2023-01-31T05:38:31.893Z,26.85
2023-01-31T05:40:35.028Z,28.75
2023-01-31T05:42:38.212Z,25.98
2023-01-31T05:44:41.545Z,27.88
2023-01-31T05:46:46.143Z,30.35
2023-01-31T05:48:49.315Z,24.60
2023-01-31T05:50:52.465Z,31.20
2023-01-31T05:52:57.389Z,31.58
2023-01-31T05:55:00.636Z,32.92
2023-01-31T05:57:04.015Z,24.33
2023-01-31T05:59:07.296Z,32.30
2023-01-31T06:01:10.587Z,33.00
2023-01-31T06:03:15.196Z,36.88
2023-01-31T06:05:19.328Z,33.20
2023-01-31T06:07:23.624Z,37.05
2023-01-31T06:09:26.972Z,40.40
2023-01-31T06:11:30.879Z,30.45
2023-01-31T06:13:34.277Z,34.60
2023-01-31T06:15:37.777Z,30.25
2023-01-31T06:17:40.939Z,35.85
2023-01-31T06:19:45.541Z,35.15
2023-01-31T06:21:48.713Z,28.95
2023-01-31T06:23:51.961Z,34.88
2023-01-31T06:25:57.082Z,30.77
2023-01-31T06:28:00.257Z,32.13
2023-01-31T06:30:03.628Z,39.83
2023-01-31T06:32:07.761Z,42.28
2023-01-31T06:34:10.980Z,26.48
2023-01-31T06:36:18.403Z,33.10
2023-01-31T06:38:21.974Z,40.63
2023-01-31T06:40:25.328Z,31.83
2023-01-31T06:42:28.600Z,32.97
2023-01-31T06:44:33.172Z,31.77
2023-01-31T06:46:36.631Z,39.25
2023-01-31T06:48:39.850Z,29.23
2023-01-31T06:50:43.042Z,27.10
2023-01-31T06:52:47.937Z,29.27
2023-01-31T06:54:51.080Z,21.55
2023-01-31T06:56:54.220Z,31.05
2023-01-31T06:58:57.436Z,27.45
2023-01-31T07:01:05.856Z,28.63
2023-01-31T07:03:09.010Z,31.83
2023-01-31T07:05:12.344Z,28.23
2023-01-31T07:07:15.472Z,26.60
2023-01-31T07:09:20.016Z,25.90
2023-01-31T07:11:23.219Z,23.55
2023-01-31T07:13:26.437Z,21.55
2023-01-31T07:15:30.147Z,31.88
2023-01-31T07:17:34.353Z,26.45
2023-01-31T07:19:37.564Z,25.13
2023-01-31T07:21:40.720Z,23.42
2023-01-31T07:23:45.551Z,23.98
2023-01-31T07:25:50.685Z,23.52
2023-01-31T07:27:54.212Z,29.10
2023-01-31T07:29:57.477Z,28.88
2023-01-31T07:32:00.761Z,27.60
2023-01-31T07:34:04.015Z,28.55
2023-01-31T07:36:09.320Z,31.98
2023-01-31T07:38:12.564Z,24.85
2023-01-31T07:40:17.105Z,30.80
2023-01-31T07:42:21.647Z,34.45
2023-01-31T07:44:25.508Z,27.30
2023-01-31T07:46:28.806Z,32.28
2023-01-31T07:48:31.975Z,22.92
2023-01-31T07:50:35.203Z,29.08
2023-01-31T07:52:38.350Z,34.83
2023-01-31T07:54:41.502Z,29.20
2023-01-31T07:56:44.810Z,27.10
2023-01-31T07:58:50.815Z,32.63
2023-01-31T08:01:12.636Z,29.25
2023-01-31T08:03:34.354Z,31.25
2023-01-31T08:07:40.532Z,22.50
2023-01-31T08:09:47.309Z,26.17
2023-01-31T08:11:50.633Z,27.25
2023-01-31T08:13:55.407Z,21.92
2023-01-31T08:15:59.656Z,23.92
2023-01-31T08:18:05.878Z,29.65
2023-01-31T08:20:10.463Z,33.55
2023-01-31T08:22:13.715Z,28.38
2023-01-31T08:24:17.025Z,34.65
2023-01-31T08:26:22.510Z,28.35
2023-01-31T08:28:25.684Z,29.90
2023-01-31T08:30:30.756Z,30.52
2023-01-31T08:32:34.668Z,23.08
2023-01-31T08:34:37.879Z,24.50
2023-01-31T08:36:41.093Z,33.75
2023-01-31T08:38:44.929Z,30.42
2023-01-31T08:40:48.246Z,25.15
2023-01-31T08:42:58.349Z,29.00
2023-01-31T08:45:01.569Z,27.48
2023-01-31T08:47:06.390Z,24.77
2023-01-31T08:49:11.508Z,33.15
2023-01-31T08:51:15.375Z,31.58
2023-01-31T08:53:18.528Z,29.60
2023-01-31T08:55:22.530Z,27.52
2023-01-31T08:57:25.837Z,34.25
2023-01-31T08:59:30.133Z,28.13
2023-01-31T09:01:35.441Z,30.30
2023-01-31T09:03:42.550Z,34.25
2023-01-31T09:05:47.219Z,27.63
2023-01-31T09:07:50.800Z,27.48
2023-01-31T09:09:55.120Z,29.67
2023-01-31T09:11:59.310Z,26.80
2023-01-31T09:14:02.651Z,30.02
2023-01-31T09:16:08.770Z,37.55
2023-01-31T09:18:12.043Z,31.05
2023-01-31T09:20:16.933Z,29.02
2023-01-31T09:22:20.595Z,39.38
2023-01-31T09:24:23.821Z,31.20
2023-01-31T09:26:27.309Z,30.92
2023-01-31T09:28:30.937Z,31.77
2023-01-31T09:30:34.214Z,31.35
2023-01-31T09:32:38.789Z,30.95
2023-01-31T09:34:41.955Z,27.52
2023-01-31T09:36:47.118Z,28.58
2023-01-31T09:38:54.538Z,25.33
2023-01-31T09:41:00.944Z,22.15
2023-01-31T09:43:05.207Z,30.88
2023-01-31T09:45:13.856Z,27.10
2023-01-31T09:47:24.767Z,25.10
2023-01-31T09:49:31.869Z,24.58
2023-01-31T09:51:35.747Z,23.23
2023-01-31T09:53:42.295Z,25.55
2023-01-31T09:55:52.660Z,21.00
2023-01-31T09:58:04.651Z,36.50
2023-01-31T10:00:17.513Z,24.52
2023-01-31T10:02:51.552Z,21.67
2023-01-31T10:05:07.805Z,26.80
2023-01-31T10:07:16.900Z,21.80
2023-01-31T10:09:30.753Z,22.17
2023-01-31T10:11:40.470Z,22.77
2023-01-31T10:13:50.884Z,26.90
2023-01-31T10:15:57.042Z,24.90
2023-01-31T10:18:03.688Z,22.63
2023-01-31T10:20:14.505Z,21.60
2023-01-31T10:22:24.228Z,24.40
2023-01-31T10:24:33.453Z,24.73
2023-01-31T10:26:40.218Z,23.85
2023-01-31T10:28:52.623Z,23.83
2023-01-31T10:31:00.731Z,25.75
2023-01-31T10:33:13.431Z,20.38
2023-01-31T10:35:21.853Z,19.73
2023-01-31T10:37:35.671Z,23.65
2023-01-31T10:39:45.128Z,23.65
2023-01-31T10:42:05.065Z,20.05
2023-01-31T10:44:21.555Z,19.90
2023-01-31T10:46:24.800Z,20.73
2023-01-31T10:48:30.539Z,22.10
2023-01-31T10:50:41.862Z,23.05
2023-01-31T10:52:58.314Z,27.52
2023-01-31T10:55:27.959Z,24.00
2023-01-31T10:57:31.594Z,22.35
2023-01-31T10:59:37.354Z,19.38
2023-01-31T11:01:40.541Z,24.10
2023-01-31T11:03:49.664Z,22.63
2023-01-31T11:05:54.316Z,22.60
2023-01-31T11:07:59.312Z,20.98
2023-01-31T11:10:24.440Z,18.55
2023-01-31T11:12:42.604Z,22.17
2023-01-31T11:14:46.021Z,22.30
2023-01-31T11:16:50.271Z,23.02
2023-01-31T11:18:54.538Z,18.55
2023-01-31T11:20:59.276Z,23.70
2023-01-31T11:23:04.306Z,20.33
2023-01-31T11:25:08.277Z,23.52
2023-01-31T11:27:23.582Z,20.98
2023-01-31T11:29:29.984Z,17.02
2023-01-31T11:31:39.402Z,23.27
2023-01-31T11:33:49.179Z,22.67
2023-01-31T11:35:53.735Z,19.83
2023-01-31T11:37:58.902Z,15.82
2023-01-31T11:40:03.642Z,18.80
2023-01-31T11:42:09.040Z,15.93
2023-01-31T11:44:16.741Z,17.08
2023-01-31T11:46:20.033Z,14.82
2023-01-31T11:48:25.768Z,18.52
2023-01-31T11:50:35.002Z,23.98
2023-01-31T11:52:38.179Z,14.85
2023-01-31T11:54:47.688Z,11.50
2023-01-31T11:56:51.213Z,16.35
2023-01-31T11:58:56.732Z,17.15
2023-01-31T12:01:06.729Z,14.48
2023-01-31T12:03:17.825Z,17.48
2023-01-31T12:05:21.154Z,9.60
2023-01-31T12:07:25.750Z,14.45
2023-01-31T12:09:33.077Z,11.52
2023-01-31T12:11:37.366Z,11.68
2023-01-31T12:13:48.443Z,11.88
2023-01-31T12:15:57.057Z,9.73
2023-01-31T12:18:03.039Z,14.18
2023-01-31T12:20:31.628Z,9.70
2023-01-31T12:22:41.991Z,11.80
2023-01-31T12:24:57.559Z,11.88
2023-01-31T12:27:08.601Z,12.80
2023-01-31T12:29:41.905Z,8.88
2023-01-31T12:31:58.232Z,11.05
2023-01-31T12:34:20.141Z,7.25
2023-01-31T12:36:43.959Z,5.97
2023-01-31T12:39:00.631Z,9.23
2023-01-31T12:41:16.236Z,6.60
2023-01-31T12:43:33.604Z,9.13
2023-01-31T12:45:59.587Z,5.82
2023-01-31T12:48:44.780Z,5.90
2023-01-31T12:50:53.583Z,4.75
2023-01-31T12:53:19.769Z,7.43
2023-01-31T12:55:32.294Z,6.38
2023-01-31T12:57:43.862Z,3.28
2023-01-31T13:01:59.353Z,4.13
2023-01-31T13:04:22.676Z,4.15
2023-01-31T13:06:31.716Z,7.55
2023-01-31T13:08:36.945Z,6.43
2023-01-31T13:10:44.766Z,4.32
2023-01-31T13:12:48.795Z,6.43
2023-01-31T13:15:00.378Z,4.85
2023-01-31T13:19:16.626Z,7.55
2023-01-31T13:21:23.984Z,6.55
2023-01-31T13:23:32.369Z,8.57
2023-01-31T13:25:40.221Z,7.65
2023-01-31T13:27:48.143Z,8.20
2023-01-31T13:29:58.081Z,10.75
2023-01-31T13:32:04.878Z,11.00
2023-01-31T13:34:15.545Z,8.02
2023-01-31T13:36:26.809Z,12.73
2023-01-31T13:38:38.596Z,13.77
2023-01-31T13:40:51.328Z,15.77
2023-01-31T13:42:58.774Z,13.45
2023-01-31T13:45:07.759Z,12.07
2023-01-31T13:47:18.318Z,14.63
2023-01-31T13:49:28.091Z,15.30
2023-01-31T13:51:38.594Z,15.88
2023-01-31T13:53:48.603Z,16.10
2023-01-31T13:55:53.252Z,12.02
2023-01-31T13:58:00.282Z,16.13
2023-01-31T14:00:10.862Z,16.27
2023-01-31T14:02:20.183Z,18.92
2023-01-31T14:04:32.670Z,16.25
2023-01-31T14:06:57.455Z,20.02
2023-01-31T14:09:02.140Z,21.33
2023-01-31T14:11:35.227Z,21.52
2023-01-31T14:13:41.833Z,20.45
2023-01-31T14:15:48.811Z,17.25
2023-01-31T14:18:01.258Z,19.83
2023-01-31T14:20:08.817Z,14.63
2023-01-31T14:22:16.649Z,19.13
2023-01-31T14:24:46.765Z,18.45
2023-01-31T14:26:54.717Z,16.02
2023-01-31T14:28:58.038Z,24.50
2023-01-31T14:31:14.084Z,18.90
2023-01-31T14:33:24.600Z,24.58
2023-01-31T14:35:40.459Z,15.35
2023-01-31T14:37:54.191Z,19.23
2023-01-31T14:40:16.453Z,16.48
2023-01-31T14:42:36.980Z,18.88
2023-01-31T14:44:54.711Z,24.10
2023-01-31T14:47:09.727Z,20.25
2023-01-31T14:49:51.174Z,23.65
2023-01-31T14:52:18.418Z,23.90
2023-01-31T14:54:36.642Z,23.58
2023-01-31T14:56:55.185Z,22.75
2023-01-31T14:58:59.294Z,34.10
2023-01-31T15:01:05.945Z,32.40
2023-01-31T15:03:17.775Z,34.63
2023-01-31T15:05:39.428Z,32.72
2023-01-31T15:08:01.896Z,26.55
2023-01-31T15:10:05.963Z,31.70
2023-01-31T15:12:42.472Z,26.90
2023-01-31T15:14:49.735Z,34.38
2023-01-31T15:17:00.771Z,29.08
2023-01-31T15:19:09.479Z,29.17
2023-01-31T15:21:13.054Z,29.42
2023-01-31T15:23:21.014Z,33.22
2023-01-31T15:25:31.118Z,28.27
2023-01-31T15:27:41.093Z,27.70
2023-01-31T15:29:52.631Z,34.75
2023-01-31T15:34:06.865Z,40.00
2023-01-31T15:36:19.868Z,34.83
2023-01-31T15:38:29.705Z,37.03
2023-01-31T15:40:33.535Z,32.15
2023-01-31T15:42:37.116Z,35.00
2023-01-31T15:44:40.443Z,39.78
2023-01-31T15:46:46.343Z,42.72
2023-01-31T15:48:49.819Z,29.17
2023-01-31T15:50:54.934Z,34.97
2023-01-31T15:53:02.995Z,43.55
2023-01-31T15:55:07.678Z,37.20
2023-01-31T15:57:16.057Z,38.88
2023-01-31T15:59:20.183Z,27.58
2023-01-31T16:01:24.049Z,35.78
2023-01-31T16:03:32.815Z,41.33
2023-01-31T16:05:38.649Z,35.47
2023-01-31T16:07:47.803Z,26.30
2023-01-31T16:09:53.046Z,38.10
2023-01-31T16:11:57.012Z,17.92
2023-01-31T16:14:02.627Z,17.05
2023-01-31T16:16:10.447Z,19.98
2023-01-31T16:18:14.440Z,10.82
2023-01-31T16:20:44.520Z,13.30
2023-01-31T16:22:57.786Z,14.63
2023-01-31T16:25:02.645Z,12.80
2023-01-31T16:27:10.720Z,13.00
2023-01-31T16:29:19.349Z,14.07
2023-01-31T16:31:24.609Z,15.82
2023-01-31T16:33:28.060Z,18.45
2023-01-31T16:35:31.654Z,17.55
2023-01-31T16:37:39.001Z,13.95
2023-01-31T16:39:46.605Z,16.00
2023-01-31T16:41:52.676Z,25.33
2023-01-31T16:43:56.844Z,17.40
2023-01-31T16:46:02.712Z,17.48
2023-01-31T16:48:23.934Z,17.77
2023-01-31T16:50:42.931Z,26.17
2023-01-31T16:52:49.759Z,27.42
2023-01-31T16:54:54.500Z,33.58
2023-01-31T16:57:09.415Z,27.85
2023-01-31T16:59:41.208Z,35.33
2023-01-31T17:03:48.773Z,30.35
2023-01-31T17:05:53.229Z,38.45
2023-01-31T17:07:59.803Z,37.45
2023-01-31T17:10:05.856Z,31.33
2023-01-31T17:12:18.004Z,42.85
2023-01-31T17:14:21.265Z,36.17
2023-01-31T17:16:27.105Z,38.05
2023-01-31T17:18:30.313Z,45.28
2023-01-31T17:20:34.015Z,35.92
2023-01-31T17:22:37.159Z,31.63
2023-01-31T17:24:42.178Z,35.83
2023-01-31T17:26:45.610Z,32.65
2023-01-31T17:29:00.759Z,34.70
2023-01-31T17:31:04.755Z,43.15
2023-01-31T17:33:08.348Z,33.17
2023-01-31T17:35:19.461Z,42.03
2023-01-31T17:37:31.179Z,40.08
2023-01-31T17:39:35.303Z,33.25
2023-01-31T17:41:41.446Z,31.48
2023-01-31T17:43:45.504Z,28.73
2023-01-31T17:45:48.714Z,41.38
2023-01-31T17:47:51.935Z,32.58
2023-01-31T17:49:55.590Z,43.00
2023-01-31T17:51:58.970Z,34.03
2023-01-31T17:54:02.362Z,48.75
2023-01-31T17:56:06.269Z,48.22
2023-01-31T17:58:14.351Z,55.40
2023-01-31T18:00:19.455Z,46.58
2023-01-31T18:02:23.000Z,44.88
2023-01-31T18:04:26.481Z,45.92
2023-01-31T18:06:31.724Z,52.00
2023-01-31T18:08:35.410Z,41.28
2023-01-31T18:10:38.543Z,55.22
2023-01-31T18:12:41.750Z,59.42
2023-01-31T18:14:46.411Z,48.15
2023-01-31T18:16:51.340Z,37.72
2023-01-31T18:18:54.592Z,46.75
2023-01-31T18:20:57.987Z,44.95
2023-01-31T18:23:01.324Z,50.85
2023-01-31T18:25:06.083Z,40.78
2023-01-31T18:27:10.343Z,43.08
2023-01-31T18:29:19.766Z,46.95
2023-01-31T18:31:24.880Z,42.88
2023-01-31T18:33:28.285Z,55.25
2023-01-31T18:35:31.451Z,56.00
2023-01-31T18:37:34.634Z,51.95
2023-01-31T18:39:39.456Z,47.08
2023-01-31T18:41:42.994Z,48.25
2023-01-31T18:43:48.334Z,43.65
2023-01-31T18:45:51.688Z,55.28
2023-01-31T18:47:56.267Z,54.25
2023-01-31T18:49:59.451Z,50.55
2023-01-31T18:52:03.095Z,47.45
2023-01-31T18:54:07.843Z,48.13
2023-01-31T18:56:13.828Z,51.42
2023-01-31T18:58:17.733Z,57.22
2023-01-31T19:00:22.147Z,45.45
2023-01-31T19:02:25.415Z,57.85
2023-01-31T19:04:33.442Z,42.40
2023-01-31T19:06:38.790Z,44.40
2023-01-31T19:08:42.528Z,48.00
2023-01-31T19:10:45.645Z,44.22
2023-01-31T19:12:49.538Z,44.28
2023-01-31T19:14:56.364Z,43.47
2023-01-31T19:17:00.985Z,36.97
2023-01-31T19:19:04.548Z,54.30
2023-01-31T19:21:17.913Z,39.85
2023-01-31T19:23:21.046Z,37.55
2023-01-31T19:25:24.195Z,48.78
2023-01-31T19:27:30.314Z,42.35
2023-01-31T19:29:33.736Z,41.10
2023-01-31T19:31:38.100Z,36.28
2023-01-31T19:33:42.174Z,34.22
2023-01-31T19:35:45.460Z,41.05
2023-01-31T19:37:50.344Z,38.03
2023-01-31T19:39:53.522Z,39.95
2023-01-31T19:41:56.758Z,43.58
2023-01-31T19:44:01.139Z,48.40
2023-01-31T19:46:05.693Z,46.15
2023-01-31T19:48:08.929Z,47.45
2023-01-31T19:50:12.755Z,50.97
2023-01-31T19:52:16.144Z,45.28
2023-01-31T19:54:20.849Z,43.42
2023-01-31T19:56:25.087Z,52.22
2023-01-31T19:58:31.315Z,39.15
2023-01-31T20:00:36.044Z,44.88
2023-01-31T20:02:42.173Z,42.67
2023-01-31T20:04:45.968Z,44.35
2023-01-31T20:06:49.415Z,41.50
2023-01-31T20:08:54.274Z,42.30
2023-01-31T20:10:59.416Z,42.58
2023-01-31T20:13:02.643Z,50.75
2023-01-31T20:15:07.966Z,42.17
2023-01-31T20:17:11.217Z,44.78
2023-01-31T20:19:14.427Z,46.35
2023-01-31T20:21:19.200Z,43.85
2023-01-31T20:23:22.525Z,30.85
2023-01-31T20:25:25.699Z,53.80
2023-01-31T20:27:33.694Z,42.53
2023-01-31T20:29:36.809Z,42.05
2023-01-31T20:31:40.058Z,48.65
2023-01-31T20:33:44.061Z,56.70
2023-01-31T20:35:47.754Z,49.83
2023-01-31T20:37:50.904Z,47.35
2023-01-31T20:39:54.049Z,40.78
2023-01-31T20:41:57.412Z,53.50
2023-01-31T20:44:02.004Z,44.83
2023-01-31T20:46:06.248Z,43.40
2023-01-31T20:48:09.404Z,46.83
2023-01-31T20:50:12.759Z,42.83
2023-01-31T20:52:15.990Z,44.92
2023-01-31T20:54:19.200Z,39.88
2023-01-31T20:56:22.349Z,41.90
2023-01-31T20:58:26.081Z,42.58
2023-01-31T21:00:30.677Z,36.78
2023-01-31T21:02:33.939Z,39.25
2023-01-31T21:04:40.078Z,43.75
2023-01-31T21:06:43.467Z,42.25
2023-01-31T21:08:48.452Z,51.92
2023-01-31T21:10:52.846Z,36.03
2023-01-31T21:12:56.070Z,44.58
2023-01-31T21:14:59.347Z,48.90
2023-01-31T21:17:03.985Z,43.30
2023-01-31T21:19:07.171Z,52.42
2023-01-31T21:21:12.657Z,45.05
2023-01-31T21:23:15.826Z,50.53
2023-01-31T21:25:19.099Z,42.33
2023-01-31T21:27:22.420Z,48.97
2023-01-31T21:29:25.687Z,52.97
2023-01-31T21:31:30.169Z,50.30
2023-01-31T21:33:35.070Z,46.97
2023-01-31T21:35:38.266Z,45.75
2023-01-31T21:37:41.587Z,41.42
2023-01-31T21:39:44.833Z,44.42
2023-01-31T21:42:05.344Z,40.28
2023-01-31T21:44:08.510Z,37.50
2023-01-31T21:46:12.652Z,49.03
2023-01-31T21:48:32.089Z,32.75
2023-01-31T21:50:37.100Z,43.65
2023-01-31T21:52:40.333Z,38.63
2023-01-31T21:54:43.538Z,41.70
2023-01-31T21:56:46.750Z,43.75
2023-01-31T21:58:50.129Z,36.33
2023-01-31T22:00:53.355Z,44.25
2023-01-31T22:02:56.597Z,43.35
2023-01-31T22:04:59.753Z,42.65
2023-01-31T22:07:04.314Z,44.95
2023-01-31T22:09:08.998Z,44.05
2023-01-31T22:11:13.890Z,41.58
2023-01-31T22:13:17.074Z,38.35
2023-01-31T22:15:20.291Z,44.92
2023-01-31T22:17:23.471Z,43.38
2023-01-31T22:19:26.725Z,45.72
2023-01-31T22:21:31.654Z,39.70
2023-01-31T22:23:37.703Z,35.95
2023-01-31T22:25:40.936Z,34.47
2023-01-31T22:27:44.623Z,44.55
2023-01-31T22:29:47.823Z,39.72
2023-01-31T22:31:51.259Z,37.97
2023-01-31T22:33:56.024Z,42.53
2023-01-31T22:35:59.528Z,39.22
2023-01-31T22:38:04.150Z,38.33
2023-01-31T22:40:09.912Z,38.70
2023-01-31T22:42:13.163Z,46.08
2023-01-31T22:44:16.383Z,37.45
2023-01-31T22:46:21.107Z,46.30
2023-01-31T22:48:25.575Z,28.15
2023-01-31T22:50:28.762Z,36.22
2023-01-31T22:52:32.002Z,32.03
2023-01-31T22:54:35.156Z,37.15
2023-01-31T22:56:39.710Z,38.42
2023-01-31T22:58:43.560Z,30.17
2023-01-31T23:00:47.775Z,36.33
2023-01-31T23:02:51.018Z,43.42
2023-01-31T23:04:54.226Z,40.22
2023-01-31T23:06:57.443Z,44.72
2023-01-31T23:09:00.621Z,40.33
2023-01-31T23:11:08.151Z,38.70
2023-01-31T23:13:12.998Z,36.95
2023-01-31T23:15:16.663Z,42.22
2023-01-31T23:17:37.415Z,30.55
2023-01-31T23:19:40.592Z,53.07
2023-01-31T23:21:44.475Z,38.85
2023-01-31T23:23:47.782Z,44.38
2023-01-31T23:25:50.942Z,38.03
2023-01-31T23:27:56.274Z,30.05
2023-01-31T23:30:01.057Z,39.63
2023-01-31T23:32:04.301Z,32.92
2023-01-31T23:34:07.825Z,37.85
2023-01-31T23:36:11.277Z,42.65
2023-01-31T23:38:14.619Z,37.65
2023-01-31T23:40:18.109Z,27.02
2023-01-31T23:42:21.259Z,38.72
2023-01-31T23:44:24.472Z,35.83
2023-01-31T23:46:29.156Z,34.78
2023-01-31T23:48:32.732Z,37.47
2023-01-31T23:50:36.122Z,33.95
2023-01-31T23:52:39.307Z,36.28
2023-01-31T23:54:42.451Z,42.05
2023-01-31T23:56:45.628Z,34.45
2023-01-31T23:58:48.857Z,35.75
